createdAt,value
2019-01-06T00:02:18.173Z,-3.36
2019-01-06T00:05:15.663Z,-3.40
2019-01-06T00:08:04.376Z,-3.42
2019-01-06T00:10:52.666Z,-3.41
2019-01-06T00:13:59.404Z,-3.46
2019-01-06T00:16:47.820Z,-3.45
2019-01-06T00:19:39.005Z,-3.44
2019-01-06T00:22:42.506Z,-3.41
2019-01-06T00:25:34.202Z,-3.33
2019-01-06T00:28:20.903Z,-3.26
2019-01-06T00:31:24.793Z,-3.14
2019-01-06T00:34:15.718Z,-3.15
2019-01-06T00:37:19.548Z,-3.08
2019-01-06T00:40:10.798Z,-3.07
2019-01-06T00:42:57.802Z,-3.04
2019-01-06T00:45:48.783Z,-3.07
2019-01-06T00:48:44.234Z,-3.11
2019-01-06T00:51:50.606Z,-3.13
2019-01-06T00:54:53.908Z,-3.06
2019-01-06T00:57:45.112Z,-2.99
2019-01-06T01:00:32.157Z,-3.02
2019-01-06T01:03:25.845Z,-3.00
2019-01-06T01:06:13.002Z,-3.05
2019-01-06T01:09:08.401Z,-3.00
2019-01-06T01:12:02.837Z,-3.03
2019-01-06T01:14:51.838Z,-3.00
2019-01-06T01:17:43.683Z,-2.93
2019-01-06T01:20:36.030Z,-2.92
2019-01-06T01:23:27.751Z,-2.87
2019-01-06T01:26:18.663Z,-2.91
2019-01-06T01:29:22.560Z,-2.86
2019-01-06T01:32:09.552Z,-2.87
2019-01-06T01:35:09.235Z,-2.81
2019-01-06T01:38:09.019Z,-2.85
2019-01-06T01:40:57.398Z,-2.82
2019-01-06T01:43:44.471Z,-2.81
2019-01-06T01:46:38.962Z,-2.81
2019-01-06T01:49:39.422Z,-2.79
2019-01-06T01:52:33.694Z,-2.81
2019-01-06T01:55:20.338Z,-2.76
2019-01-06T01:58:20.932Z,-2.76
2019-01-06T02:01:03.414Z,-2.72
2019-01-06T02:03:54.559Z,-2.70
2019-01-06T02:06:41.742Z,-2.72
2019-01-06T02:09:30.468Z,-2.70
2019-01-06T02:12:18.870Z,-2.65
2019-01-06T02:15:15.942Z,-2.64
2019-01-06T02:18:02.904Z,-2.60
2019-01-06T02:21:06.356Z,-2.60
2019-01-06T02:23:54.616Z,-2.61
2019-01-06T02:26:41.717Z,-2.52
2019-01-06T02:29:28.601Z,-2.43
2019-01-06T02:32:15.415Z,-2.35
2019-01-06T02:35:02.354Z,-2.34
2019-01-06T02:37:49.484Z,-2.27
2019-01-06T02:40:45.287Z,-2.17
2019-01-06T02:43:42.342Z,-2.07
2019-01-06T02:46:33.653Z,-1.88
2019-01-06T02:49:20.856Z,-1.69
2019-01-06T02:52:01.071Z,-1.63
2019-01-06T02:54:48.108Z,-1.53
2019-01-06T02:57:42.580Z,-1.41
2019-01-06T03:00:34.171Z,-1.47
2019-01-06T03:03:21.182Z,-1.49
2019-01-06T03:06:18.962Z,-1.44
2019-01-06T03:09:22.314Z,-1.37
2019-01-06T03:12:09.961Z,-1.23
2019-01-06T03:14:58.352Z,-1.11
2019-01-06T03:17:59.042Z,-1.05
2019-01-06T03:20:53.174Z,-1.02
2019-01-06T03:23:40.304Z,-1.00
2019-01-06T03:26:27.066Z,-1.05
2019-01-06T03:29:06.843Z,-1.11
2019-01-06T03:31:47.993Z,-1.15
2019-01-06T03:34:45.754Z,-1.19
2019-01-06T03:37:36.774Z,-1.23
2019-01-06T03:40:38.316Z,-1.25
2019-01-06T03:43:35.472Z,-1.23
2019-01-06T03:46:22.919Z,-1.22
2019-01-06T03:49:23.104Z,-1.19
2019-01-06T03:52:20.584Z,-1.17
2019-01-06T03:55:17.841Z,-1.14
2019-01-06T03:58:03.464Z,-1.06
2019-01-06T04:00:54.376Z,-1.06
2019-01-06T04:03:48.925Z,-0.98
2019-01-06T04:06:35.701Z,-1.02
2019-01-06T04:09:37.972Z,-0.99
2019-01-06T04:12:31.066Z,-0.92
2019-01-06T04:15:22.399Z,-0.96
2019-01-06T04:18:04.598Z,-0.83
2019-01-06T04:21:11.306Z,-0.85
2019-01-06T04:23:58.060Z,-0.90
2019-01-06T04:26:45.094Z,-0.84
2019-01-06T04:29:51.637Z,-0.87
2019-01-06T04:32:42.897Z,-0.81
2019-01-06T04:35:39.991Z,-0.76
2019-01-06T04:38:27.178Z,-0.74
2019-01-06T04:41:27.996Z,-0.62
2019-01-06T04:44:16.526Z,-0.58
2019-01-06T04:47:16.893Z,-0.55
2019-01-06T04:50:04.204Z,-0.53
2019-01-06T04:52:51.301Z,-0.52
2019-01-06T04:55:55.044Z,-0.43
2019-01-06T04:58:43.452Z,-0.40
2019-01-06T05:01:30.098Z,-0.44
2019-01-06T05:04:18.401Z,-0.44
2019-01-06T05:07:02.633Z,-0.44
2019-01-06T05:09:49.889Z,-0.38
2019-01-06T05:12:50.743Z,-0.36
2019-01-06T05:15:39.810Z,-0.24
2019-01-06T05:18:31.371Z,-0.12
2019-01-06T05:21:27.253Z,-0.08
2019-01-06T05:24:14.691Z,0.07
2019-01-06T05:27:05.854Z,0.11
2019-01-06T05:30:06.447Z,0.10
2019-01-06T05:32:53.684Z,0.15
2019-01-06T05:35:55.007Z,0.21
2019-01-06T05:38:49.509Z,0.29
2019-01-06T05:41:37.853Z,0.29
2019-01-06T05:44:25.074Z,0.31
2019-01-06T05:47:29.636Z,0.27
2019-01-06T05:50:16.716Z,0.24
2019-01-06T05:53:22.995Z,0.27
2019-01-06T05:56:26.159Z,0.32
2019-01-06T05:59:17.112Z,0.31
2019-01-06T06:02:05.494Z,0.33
2019-01-06T06:05:06.151Z,0.37
2019-01-06T06:07:57.491Z,0.48
2019-01-06T06:10:44.247Z,0.53
2019-01-06T06:13:44.399Z,0.60
2019-01-06T06:16:32.259Z,0.61
2019-01-06T06:19:36.054Z,0.69
2019-01-06T06:22:24.728Z,0.72
2019-01-06T06:25:18.888Z,0.69
2019-01-06T06:28:13.509Z,0.64
2019-01-06T06:31:00.742Z,0.64
2019-01-06T06:33:55.304Z,0.62
2019-01-06T06:36:42.036Z,0.68
2019-01-06T06:39:29.447Z,0.71
2019-01-06T06:42:23.496Z,0.69
2019-01-06T06:45:10.182Z,0.71
2019-01-06T06:48:13.402Z,0.72
2019-01-06T06:51:19.903Z,0.78
2019-01-06T06:54:17.488Z,0.79
2019-01-06T06:57:22.479Z,0.83
2019-01-06T07:00:49.578Z,0.82
2019-01-06T07:03:44.016Z,0.84
2019-01-06T07:06:44.339Z,0.93
2019-01-06T07:09:27.174Z,0.91
2019-01-06T07:12:24.458Z,0.91
2019-01-06T07:15:21.592Z,0.97
2019-01-06T07:18:08.912Z,1.14
2019-01-06T07:21:08.156Z,1.14
2019-01-06T07:23:55.284Z,1.21
2019-01-06T07:26:49.722Z,1.13
2019-01-06T07:29:51.284Z,1.11
2019-01-06T07:32:45.953Z,1.11
2019-01-06T07:35:46.521Z,1.15
2019-01-06T07:38:37.990Z,1.19
2019-01-06T07:41:32.017Z,1.24
2019-01-06T07:44:20.364Z,1.32
2019-01-06T07:47:26.854Z,1.32
2019-01-06T07:50:07.429Z,1.55
2019-01-06T07:53:04.871Z,1.48
2019-01-06T07:55:51.833Z,1.53
2019-01-06T07:58:54.987Z,1.54
2019-01-06T08:01:42.424Z,1.57
2019-01-06T08:04:34.202Z,1.62
2019-01-06T08:07:21.175Z,1.50
2019-01-06T08:10:07.271Z,1.50
2019-01-06T08:12:54.489Z,1.59
2019-01-06T08:15:48.554Z,1.60
2019-01-06T08:18:44.975Z,1.65
2019-01-06T08:21:36.323Z,1.61
2019-01-06T08:24:40.217Z,1.55
2019-01-06T08:27:27.409Z,1.54
2019-01-06T08:30:28.481Z,1.61
2019-01-06T08:33:15.432Z,1.64
2019-01-06T08:36:09.827Z,1.67
2019-01-06T08:38:57.029Z,1.64
2019-01-06T08:41:54.884Z,1.56
2019-01-06T08:44:41.878Z,1.65
2019-01-06T08:47:46.025Z,1.74
2019-01-06T08:50:33.190Z,1.75
2019-01-06T08:53:19.470Z,1.85
2019-01-06T08:56:25.990Z,1.94
2019-01-06T08:59:19.975Z,2.08
2019-01-06T09:02:26.402Z,2.08
2019-01-06T09:05:13.077Z,2.12
2019-01-06T09:08:07.559Z,2.11
2019-01-06T09:11:02.362Z,2.25
2019-01-06T09:13:51.287Z,2.29
2019-01-06T09:16:39.863Z,2.31
2019-01-06T09:19:27.127Z,2.36
2019-01-06T09:22:14.412Z,2.33
2019-01-06T09:25:02.737Z,2.43
2019-01-06T09:28:06.332Z,2.58
2019-01-06T09:31:03.776Z,2.58
2019-01-06T09:33:55.243Z,2.65
2019-01-06T09:36:42.242Z,2.63
2019-01-06T09:39:33.614Z,2.72
2019-01-06T09:42:20.876Z,2.68
2019-01-06T09:45:07.647Z,2.59
2019-01-06T09:48:05.042Z,2.61
2019-01-06T09:50:47.924Z,2.59
2019-01-06T09:53:45.265Z,2.68
2019-01-06T09:56:42.656Z,2.79
2019-01-06T09:59:33.643Z,2.77
2019-01-06T10:02:20.502Z,2.85
2019-01-06T10:05:14.800Z,2.94
2019-01-06T10:08:18.300Z,2.99
2019-01-06T10:11:12.610Z,3.09
2019-01-06T10:14:06.683Z,3.15
2019-01-06T10:17:06.814Z,3.32
2019-01-06T10:20:10.351Z,3.46
2019-01-06T10:22:56.891Z,3.59
2019-01-06T10:25:41.445Z,3.63
2019-01-06T10:28:38.734Z,3.65
2019-01-06T10:31:30.040Z,3.61
2019-01-06T10:34:24.032Z,3.81
2019-01-06T10:37:11.104Z,3.93
2019-01-06T10:39:57.654Z,4.08
2019-01-06T10:42:44.576Z,3.98
2019-01-06T10:45:35.676Z,3.90
2019-01-06T10:48:27.230Z,3.75
2019-01-06T10:51:14.301Z,3.72
2019-01-06T10:54:11.714Z,3.46
2019-01-06T10:57:02.600Z,3.42
2019-01-06T10:59:49.549Z,3.44
2019-01-06T11:02:37.961Z,3.55
2019-01-06T11:05:32.425Z,3.60
2019-01-06T11:08:19.258Z,3.58
2019-01-06T11:11:10.816Z,3.62
2019-01-06T11:13:59.225Z,3.59
2019-01-06T11:16:52.052Z,3.72
2019-01-06T11:19:47.244Z,3.78
2019-01-06T11:22:34.074Z,3.80
2019-01-06T11:25:22.834Z,3.81
2019-01-06T11:28:07.865Z,3.81
2019-01-06T11:31:13.854Z,3.76
2019-01-06T11:34:00.804Z,3.69
2019-01-06T11:36:53.156Z,3.64
2019-01-06T11:39:59.726Z,3.62
2019-01-06T11:43:02.968Z,3.60
2019-01-06T11:45:50.064Z,3.77
2019-01-06T11:48:47.578Z,3.83
2019-01-06T11:51:38.895Z,3.72
2019-01-06T11:54:32.998Z,3.65
2019-01-06T11:57:33.309Z,3.65
2019-01-06T12:00:24.576Z,3.71
2019-01-06T12:03:14.244Z,3.72
2019-01-06T12:06:00.908Z,3.56
2019-01-06T12:08:51.958Z,3.47
2019-01-06T12:11:46.768Z,3.53
2019-01-06T12:14:25.963Z,3.61
2019-01-06T12:17:10.706Z,3.60
2019-01-06T12:19:58.872Z,3.57
2019-01-06T12:22:45.805Z,3.56
2019-01-06T12:25:32.653Z,3.55
2019-01-06T12:28:19.892Z,3.55
2019-01-06T12:31:11.408Z,3.55
2019-01-06T12:33:58.399Z,3.49
2019-01-06T12:36:45.340Z,3.56
2019-01-06T12:39:32.377Z,3.55
2019-01-06T12:42:26.916Z,3.68
2019-01-06T12:45:27.116Z,3.74
2019-01-06T12:48:21.661Z,3.59
2019-01-06T12:51:28.111Z,3.52
2019-01-06T12:54:22.685Z,3.58
2019-01-06T12:57:26.334Z,3.68
2019-01-06T13:00:13.501Z,3.64
2019-01-06T13:03:04.587Z,3.65
2019-01-06T13:06:08.017Z,3.64
2019-01-06T13:08:56.446Z,3.70
2019-01-06T13:11:43.662Z,3.75
2019-01-06T13:14:40.695Z,3.73
2019-01-06T13:17:47.349Z,3.72
2019-01-06T13:20:36.074Z,3.69
2019-01-06T13:23:30.606Z,3.75
2019-01-06T13:26:17.473Z,3.78
2019-01-06T13:29:20.748Z,3.75
2019-01-06T13:32:03.498Z,3.73
2019-01-06T13:35:04.154Z,3.69
2019-01-06T13:38:07.344Z,3.74
2019-01-06T13:41:03.008Z,3.88
2019-01-06T13:43:55.167Z,3.90
2019-01-06T13:46:49.395Z,3.88
2019-01-06T13:49:49.711Z,3.80
2019-01-06T13:52:49.800Z,3.83
2019-01-06T13:55:36.585Z,3.85
2019-01-06T13:58:25.066Z,3.70
2019-01-06T14:01:16.490Z,3.66
2019-01-06T14:04:03.419Z,3.54
2019-01-06T14:07:00.001Z,3.55
2019-01-06T14:09:54.450Z,3.54
2019-01-06T14:12:41.464Z,3.48
2019-01-06T14:15:44.819Z,3.38
2019-01-06T14:18:31.611Z,3.37
2019-01-06T14:21:18.787Z,3.32
2019-01-06T14:24:05.815Z,3.27
2019-01-06T14:26:54.171Z,3.19
2019-01-06T14:29:48.265Z,3.14
2019-01-06T14:32:39.833Z,3.08
2019-01-06T14:35:32.139Z,3.04
2019-01-06T14:38:20.502Z,3.05
2019-01-06T14:41:11.668Z,3.08
2019-01-06T14:44:13.973Z,3.04
2019-01-06T14:47:08.316Z,2.94
2019-01-06T14:49:55.537Z,2.88
2019-01-06T14:52:40.398Z,2.79
2019-01-06T14:55:29.077Z,2.73
2019-01-06T14:58:20.067Z,2.65
2019-01-06T15:01:07.564Z,2.67
2019-01-06T15:03:55.913Z,2.67
2019-01-06T15:06:44.888Z,2.60
2019-01-06T15:09:39.447Z,2.53
2019-01-06T15:12:26.731Z,2.52
2019-01-06T15:15:21.015Z,2.55
2019-01-06T15:18:15.021Z,2.53
2019-01-06T15:21:02.080Z,2.50
2019-01-06T15:23:48.797Z,2.45
2019-01-06T15:26:35.925Z,2.40
2019-01-06T15:29:36.354Z,2.41
2019-01-06T15:32:42.689Z,2.41
2019-01-06T15:35:34.365Z,2.42
2019-01-06T15:38:25.858Z,2.40
2019-01-06T15:41:26.334Z,2.48
2019-01-06T15:44:17.821Z,2.52
2019-01-06T15:47:07.007Z,2.51
2019-01-06T15:49:53.713Z,2.42
2019-01-06T15:53:00.316Z,2.34
2019-01-06T15:55:48.636Z,2.34
2019-01-06T15:58:36.046Z,2.35
2019-01-06T16:01:36.642Z,2.38
2019-01-06T16:04:36.889Z,2.37
2019-01-06T16:07:37.274Z,2.36
2019-01-06T16:10:25.712Z,2.37
2019-01-06T16:13:12.502Z,2.35
2019-01-06T16:15:54.864Z,2.37
2019-01-06T16:18:39.120Z,2.36
2019-01-06T16:21:28.444Z,2.35
2019-01-06T16:24:12.549Z,2.32
2019-01-06T16:27:01.002Z,2.29
2019-01-06T16:29:47.975Z,2.37
2019-01-06T16:32:42.586Z,2.41
2019-01-06T16:35:33.222Z,2.42
2019-01-06T16:38:27.806Z,2.46
2019-01-06T16:41:24.426Z,2.54
2019-01-06T16:44:16.238Z,2.54
2019-01-06T16:47:02.766Z,2.42
2019-01-06T16:50:08.932Z,2.36
2019-01-06T16:52:57.238Z,2.36
2019-01-06T16:55:48.650Z,2.36
2019-01-06T16:58:37.494Z,2.39
2019-01-06T17:01:31.582Z,2.42
2019-01-06T17:04:23.648Z,2.43
2019-01-06T17:07:12.101Z,2.42
2019-01-06T17:09:59.211Z,2.42
2019-01-06T17:13:00.290Z,2.43
2019-01-06T17:15:45.857Z,2.45
2019-01-06T17:18:35.650Z,2.43
2019-01-06T17:21:27.681Z,2.43
2019-01-06T17:24:28.234Z,2.43
2019-01-06T17:27:25.599Z,2.42
2019-01-06T17:30:14.349Z,2.38
2019-01-06T17:33:05.843Z,2.38
2019-01-06T17:35:52.618Z,2.39
2019-01-06T17:38:44.176Z,2.46
2019-01-06T17:41:31.536Z,2.51
2019-01-06T17:44:37.911Z,2.53
2019-01-06T17:47:32.660Z,2.47
2019-01-06T17:50:23.672Z,2.45
2019-01-06T17:53:23.860Z,2.46
2019-01-06T17:56:29.985Z,2.42
2019-01-06T17:59:30.767Z,2.41
2019-01-06T18:02:19.472Z,2.32
2019-01-06T18:05:05.272Z,2.40
2019-01-06T18:07:59.635Z,2.35
2019-01-06T18:10:53.230Z,2.43
2019-01-06T18:13:40.296Z,2.40
2019-01-06T18:16:31.484Z,2.37
2019-01-06T18:19:35.137Z,2.30
2019-01-06T18:22:36.432Z,2.31
2019-01-06T18:25:27.512Z,2.35
2019-01-06T18:28:24.989Z,2.35
2019-01-06T18:31:11.830Z,2.28
2019-01-06T18:34:03.191Z,2.24
2019-01-06T18:36:49.948Z,2.35
2019-01-06T18:39:37.146Z,2.38
2019-01-06T18:42:28.538Z,2.30
2019-01-06T18:45:27.989Z,2.24
2019-01-06T18:48:14.689Z,2.24
2019-01-06T18:51:09.154Z,2.25
2019-01-06T18:54:09.515Z,2.21
2019-01-06T18:57:13.115Z,2.22
2019-01-06T19:00:04.502Z,2.20
2019-01-06T19:03:11.127Z,2.14
2019-01-06T19:05:57.748Z,2.12
2019-01-06T19:08:52.477Z,2.15
2019-01-06T19:11:49.998Z,2.20
2019-01-06T19:14:36.921Z,2.20
2019-01-06T19:17:23.415Z,2.15
2019-01-06T19:20:19.027Z,2.19
2019-01-06T19:23:19.284Z,2.20
2019-01-06T19:26:06.563Z,2.22
2019-01-06T19:29:03.637Z,2.19
2019-01-06T19:32:10.174Z,2.19
2019-01-06T19:34:57.282Z,2.17
2019-01-06T19:37:48.424Z,2.22
2019-01-06T19:40:35.412Z,2.20
2019-01-06T19:43:29.794Z,2.19
2019-01-06T19:46:13.225Z,2.18
2019-01-06T19:49:00.082Z,2.15
2019-01-06T19:51:48.377Z,2.14
2019-01-06T19:54:29.043Z,2.14
2019-01-06T19:57:22.974Z,2.13
2019-01-06T20:00:23.240Z,2.12
2019-01-06T20:03:29.715Z,2.12
2019-01-06T20:06:25.271Z,2.08
2019-01-06T20:09:19.386Z,2.09
2019-01-06T20:12:07.847Z,2.06
2019-01-06T20:14:54.880Z,2.09
2019-01-06T20:17:41.981Z,2.10
2019-01-06T20:20:39.358Z,2.09
2019-01-06T20:23:28.001Z,2.07
2019-01-06T20:26:26.317Z,2.05
2019-01-06T20:29:14.936Z,2.17
2019-01-06T20:31:56.990Z,2.17
2019-01-06T20:34:45.421Z,2.16
2019-01-06T20:37:42.492Z,2.11
2019-01-06T20:40:43.237Z,2.05
2019-01-06T20:43:31.067Z,2.08
2019-01-06T20:46:37.504Z,2.19
2019-01-06T20:49:26.480Z,2.22
2019-01-06T20:52:26.993Z,2.24
2019-01-06T20:55:18.203Z,2.24
2019-01-06T20:58:15.538Z,2.25
2019-01-06T21:01:19.081Z,2.24
2019-01-06T21:04:10.506Z,2.19
2019-01-06T21:07:13.734Z,2.18
2019-01-06T21:10:00.831Z,2.15
2019-01-06T21:13:00.852Z,2.20
2019-01-06T21:15:47.943Z,2.20
2019-01-06T21:18:34.640Z,2.13
2019-01-06T21:21:21.085Z,2.10
2019-01-06T21:24:10.845Z,2.09
2019-01-06T21:26:58.190Z,2.14
2019-01-06T21:29:45.176Z,2.12
2019-01-06T21:32:42.757Z,2.06
2019-01-06T21:35:20.040Z,2.05
2019-01-06T21:38:20.169Z,2.06
2019-01-06T21:41:07.051Z,2.03
2019-01-06T21:43:58.270Z,1.97
2019-01-06T21:46:45.215Z,1.95
2019-01-06T21:49:26.324Z,1.98
2019-01-06T21:52:20.917Z,1.94
2019-01-06T21:55:08.538Z,2.01
2019-01-06T21:58:05.980Z,2.06
2019-01-06T22:01:00.711Z,2.03
2019-01-06T22:04:08.338Z,2.04
2019-01-06T22:06:56.696Z,2.01
2019-01-06T22:09:43.553Z,2.00
2019-01-06T22:12:30.449Z,2.00
2019-01-06T22:15:24.532Z,1.98
2019-01-06T22:18:18.926Z,1.94
2019-01-06T22:21:19.367Z,1.93
2019-01-06T22:24:13.364Z,1.99
2019-01-06T22:27:10.509Z,2.08
2019-01-06T22:30:01.579Z,2.11
2019-01-06T22:32:54.622Z,2.07
2019-01-06T22:35:47.319Z,2.00
2019-01-06T22:38:34.125Z,1.98
2019-01-06T22:41:22.805Z,1.95
2019-01-06T22:44:16.783Z,1.94
2019-01-06T22:47:04.078Z,1.91
2019-01-06T22:49:50.929Z,1.86
2019-01-06T22:52:45.252Z,1.92
2019-01-06T22:55:32.358Z,1.95
2019-01-06T22:58:27.064Z,2.01
2019-01-06T23:01:27.869Z,1.93
2019-01-06T23:04:20.784Z,1.91
2019-01-06T23:07:23.461Z,1.84
2019-01-06T23:10:08.316Z,1.83
2019-01-06T23:12:56.709Z,1.89
2019-01-06T23:15:43.398Z,1.94
2019-01-06T23:18:30.103Z,1.86
2019-01-06T23:21:16.095Z,1.82
2019-01-06T23:24:02.900Z,1.77
2019-01-06T23:26:57.484Z,1.87
2019-01-06T23:29:51.672Z,1.85
2019-01-06T23:32:39.184Z,1.82
2019-01-06T23:35:33.419Z,1.78
2019-01-06T23:38:36.883Z,1.79
2019-01-06T23:41:40.130Z,1.81
2019-01-06T23:44:26.919Z,1.74
2019-01-06T23:47:15.525Z,1.70
2019-01-06T23:50:04.306Z,1.67
2019-01-06T23:52:53.467Z,1.51
2019-01-06T23:55:41.817Z,1.59
2019-01-06T23:58:28.860Z,1.64
